Time;durP1;ratioP1;P1;durP2;ratioP2;P2;SDS_P1;SDS_P2;PMS_P1;PMS_P2;Temp;Humidity;BMP_temperature;BMP_pressure;BME280_temperature;BME280_humidity;BME280_pressure;Samples;Min_cycle;Max_cycle;Signal;HPM_P1;HPM_P2
2021/09/19 00:00:06;;;;;;;0.07;0.07;;;;;;;;;;5063196;28;20033;-81
2021/09/19 00:02:33;;;;;;;0.10;0.10;;;;;;;;;;5043788;28;20033;-81
2021/09/19 00:04:59;;;;;;;0.10;0.10;;;;;;;;;;5054186;28;20063;-82
2021/09/19 00:07:25;;;;;;;0.20;0.20;;;;;;;;;;5061037;28;20082;-80
2021/09/19 00:09:51;;;;;;;0.00;0.00;;;;;;;;;;5063767;28;20248;-81
2021/09/19 00:12:17;;;;;;;0.20;0.20;;;;;;;;;;5063202;28;20035;-81
2021/09/19 00:14:43;;;;;;;0.10;0.10;;;;;;;;;;5062950;28;20036;-82
2021/09/19 00:17:10;;;;;;;1.23;0.65;;;;;;;;;;5063491;28;20105;-81
2021/09/19 00:19:36;;;;;;;0.10;0.10;;;;;;;;;;5061534;28;20024;-80
2021/09/19 00:22:03;;;;;;;0.00;0.00;;;;;;;;;;5057713;28;20040;-81
2021/09/19 00:24:29;;;;;;;0.10;0.10;;;;;;;;;;5062835;28;20108;-81
2021/09/19 00:26:55;;;;;;;2.60;1.00;;;;;;;;;;5045848;28;20098;-81
2021/09/19 00:29:21;;;;;;;0.10;0.10;;;;;;;;;;5062201;28;20555;-81
2021/09/19 00:31:47;;;;;;;2.20;0.88;;;;;;;;;;5048350;28;20029;-81
2021/09/19 00:34:13;;;;;;;0.00;0.00;;;;;;;;;;5059903;28;20493;-82
2021/09/19 00:36:39;;;;;;;0.10;0.10;;;;;;;;;;5059459;28;20079;-81
2021/09/19 00:39:07;;;;;;;0.10;0.10;;;;;;;;;;5062072;28;20032;-82
2021/09/19 00:41:34;;;;;;;0.00;0.00;;;;;;;;;;5061202;28;26625;-81
2021/09/19 00:44:04;;;;;;;0.08;0.08;;;;;;;;;;5059450;28;20035;-82
2021/09/19 00:46:30;;;;;;;0.10;0.10;;;;;;;;;;5062106;28;20093;-81
2021/09/19 00:48:56;;;;;;;0.30;0.30;;;;;;;;;;5061514;28;20028;-83
2021/09/19 00:51:22;;;;;;;0.25;0.25;;;;;;;;;;5060335;28;20348;-82
2021/09/19 00:53:51;;;;;;;0.10;0.10;;;;;;;;;;5057789;28;20052;-82
2021/09/19 00:56:23;;;;;;;0.43;0.43;;;;;;;;;;5062789;28;20046;-83
2021/09/19 00:58:51;;;;;;;0.10;0.10;;;;;;;;;;5047341;28;20063;-82
2021/09/19 01:01:17;;;;;;;0.10;0.10;;;;;;;;;;5059920;28;20033;-83
2021/09/19 01:03:44;;;;;;;0.20;0.20;;;;;;;;;;5044008;28;20031;-82
2021/09/19 01:06:10;;;;;;;0.10;0.10;;;;;;;;;;5061410;28;20528;-83
2021/09/19 01:08:36;;;;;;;0.05;0.05;;;;;;;;;;5044560;28;20033;-82
2021/09/19 01:11:02;;;;;;;0.10;0.10;;;;;;;;;;5059692;28;20047;-82
2021/09/19 01:13:28;;;;;;;0.08;0.08;;;;;;;;;;5060167;28;20044;-82
2021/09/19 01:15:55;;;;;;;0.10;0.10;;;;;;;;;;5062244;28;20035;-83
2021/09/19 01:18:21;;;;;;;0.00;0.00;;;;;;;;;;5061306;28;20021;-82
2021/09/19 01:20:48;;;;;;;0.10;0.10;;;;;;;;;;5056278;28;20123;-82
2021/09/19 01:23:15;;;;;;;0.10;0.10;;;;;;;;;;5064403;28;20178;-83
2021/09/19 01:25:40;;;;;;;;;;;;;;;;;;5058881;28;20131;-81
2021/09/19 01:28:07;;;;;;;0.10;0.10;;;;;;;;;;5058135;28;19934;-82
2021/09/19 01:30:34;;;;;;;0.10;0.10;;;;;;;;;;5058720;28;20123;-82
2021/09/19 01:32:59;;;;;;;2.45;0.52;;;;;;;;;;5060509;28;20127;-82
2021/09/19 01:35:25;;;;;;;0.10;0.10;;;;;;;;;;5060179;28;20095;-82
2021/09/19 01:37:54;;;;;;;0.00;0.00;;;;;;;;;;5058038;28;20032;-81
2021/09/19 01:40:20;;;;;;;0.10;0.10;;;;;;;;;;5041500;28;20043;-84
2021/09/19 01:42:46;;;;;;;0.10;0.10;;;;;;;;;;5055235;28;20073;-83
2021/09/19 01:45:12;;;;;;;0.40;0.40;;;;;;;;;;5041901;28;20035;-83
2021/09/19 01:47:38;;;;;;;0.10;0.10;;;;;;;;;;5060133;28;20505;-83
2021/09/19 01:50:05;;;;;;;0.00;0.00;;;;;;;;;;5063147;28;20108;-83
2021/09/19 01:52:31;;;;;;;0.15;0.15;;;;;;;;;;5053630;28;20036;-83
2021/09/19 01:54:58;;;;;;;0.10;0.10;;;;;;;;;;5060475;28;20066;-83
2021/09/19 01:57:24;;;;;;;0.10;0.10;;;;;;;;;;5043806;28;20578;-81
2021/09/19 01:59:51;;;;;;;0.00;0.00;;;;;;;;;;5058024;28;20131;-82
2021/09/19 02:02:17;;;;;;;0.10;0.10;;;;;;;;;;5061823;28;20538;-82
2021/09/19 02:04:44;;;;;;;0.10;0.10;;;;;;;;;;5061656;28;20028;-82
2021/09/19 02:07:10;;;;;;;0.10;0.10;;;;;;;;;;5055546;28;20543;-82
2021/09/19 02:09:36;;;;;;;0.00;0.00;;;;;;;;;;5060761;28;20064;-83
2021/09/19 02:12:02;;;;;;;0.10;0.10;;;;;;;;;;5059979;28;20028;-82
2021/09/19 02:14:28;;;;;;;0.10;0.10;;;;;;;;;;5060301;28;20042;-82
2021/09/19 02:16:54;;;;;;;0.10;0.10;;;;;;;;;;5061171;28;20024;-83
2021/09/19 02:19:20;;;;;;;0.08;0.08;;;;;;;;;;5043512;28;20123;-82
2021/09/19 02:21:46;;;;;;;0.10;0.10;;;;;;;;;;5030871;28;20115;-82
2021/09/19 02:24:13;;;;;;;0.30;0.30;;;;;;;;;;5060271;28;20060;-82
2021/09/19 02:26:39;;;;;;;0.00;0.00;;;;;;;;;;5060439;28;20111;-82
2021/09/19 02:29:05;;;;;;;0.07;0.07;;;;;;;;;;5061792;28;20119;-82
2021/09/19 02:31:31;;;;;;;0.00;0.00;;;;;;;;;;5058255;28;20031;-81
2021/09/19 02:33:57;;;;;;;0.00;0.00;;;;;;;;;;5056712;28;20044;-82
2021/09/19 02:36:24;;;;;;;0.10;0.10;;;;;;;;;;5057278;28;20589;-82
2021/09/19 02:38:50;;;;;;;0.00;0.00;;;;;;;;;;5061028;28;20076;-82
2021/09/19 02:41:16;;;;;;;0.00;0.00;;;;;;;;;;5061955;28;20271;-82
2021/09/19 02:43:42;;;;;;;0.03;0.03;;;;;;;;;;5061250;28;20031;-80
2021/09/19 02:46:08;;;;;;;1.97;1.03;;;;;;;;;;5060310;28;20193;-81
2021/09/19 02:48:34;;;;;;;0.20;0.20;;;;;;;;;;5062840;28;20029;-82
2021/09/19 02:51:00;;;;;;;0.07;0.07;;;;;;;;;;5064010;28;20286;-83
2021/09/19 02:53:27;;;;;;;0.87;0.87;;;;;;;;;;5062636;28;20040;-82
2021/09/19 02:55:53;;;;;;;0.10;0.10;;;;;;;;;;5065571;28;20540;-83
2021/09/19 02:58:19;;;;;;;0.20;0.20;;;;;;;;;;5060001;28;20043;-82
2021/09/19 03:00:45;;;;;;;0.10;0.10;;;;;;;;;;5052354;28;20120;-82
2021/09/19 03:03:12;;;;;;;0.10;0.10;;;;;;;;;;5063922;28;21542;-82
2021/09/19 03:05:38;;;;;;;0.10;0.10;;;;;;;;;;5059054;28;20051;-82
2021/09/19 03:08:04;;;;;;;0.27;0.27;;;;;;;;;;5064056;28;20513;-81
2021/09/19 03:10:30;;;;;;;0.20;0.20;;;;;;;;;;5063891;28;20029;-83
2021/09/19 03:12:56;;;;;;;3.10;0.20;;;;;;;;;;5061598;28;20048;-82
2021/09/19 03:15:22;;;;;;;0.10;0.10;;;;;;;;;;5051465;28;20538;-83
2021/09/19 03:17:49;;;;;;;0.00;0.00;;;;;;;;;;5064316;28;20404;-82
2021/09/19 03:20:16;;;;;;;0.10;0.10;;;;;;;;;;5066644;28;20540;-81
2021/09/19 03:22:43;;;;;;;0.22;0.22;;;;;;;;;;5057988;28;20457;-82
2021/09/19 03:25:09;;;;;;;0.00;0.00;;;;;;;;;;5063622;28;20032;-82
2021/09/19 03:27:36;;;;;;;0.10;0.10;;;;;;;;;;5063102;28;20044;-81
2021/09/19 03:30:02;;;;;;;0.00;0.00;;;;;;;;;;5062328;28;20035;-81
2021/09/19 03:32:28;;;;;;;0.00;0.00;;;;;;;;;;5062588;28;20041;-81
2021/09/19 03:34:54;;;;;;;0.07;0.07;;;;;;;;;;5062531;28;20089;-82
2021/09/19 03:37:20;;;;;;;0.22;0.22;;;;;;;;;;5059343;28;20031;-82
2021/09/19 03:39:46;;;;;;;0.40;0.40;;;;;;;;;;5060332;28;20051;-81
2021/09/19 03:42:12;;;;;;;0.30;0.30;;;;;;;;;;5062402;28;20803;-81
2021/09/19 03:44:38;;;;;;;0.00;0.00;;;;;;;;;;5059600;28;20041;-82
2021/09/19 03:47:04;;;;;;;0.00;0.00;;;;;;;;;;5065044;28;20037;-81
2021/09/19 03:49:31;;;;;;;0.10;0.10;;;;;;;;;;5062664;28;20500;-83
2021/09/19 03:51:57;;;;;;;0.00;0.00;;;;;;;;;;5059858;28;20044;-82
2021/09/19 03:54:23;;;;;;;0.15;0.15;;;;;;;;;;5057036;28;20118;-82
2021/09/19 03:56:49;;;;;;;0.20;0.20;;;;;;;;;;5049612;28;20088;-82
2021/09/19 03:59:15;;;;;;;0.07;0.07;;;;;;;;;;5045174;28;20279;-83
2021/09/19 04:01:41;;;;;;;0.10;0.10;;;;;;;;;;5062330;28;20136;-82
2021/09/19 04:04:07;;;;;;;0.57;0.57;;;;;;;;;;5042797;28;20111;-82
2021/09/19 04:06:33;;;;;;;0.10;0.10;;;;;;;;;;5059381;28;20029;-82
2021/09/19 04:08:59;;;;;;;0.00;0.00;;;;;;;;;;5057171;28;20282;-82
2021/09/19 04:11:25;;;;;;;0.10;0.10;;;;;;;;;;5046471;28;20074;-82
2021/09/19 04:13:51;;;;;;;0.00;0.00;;;;;;;;;;5060728;28;20032;-82
2021/09/19 04:16:17;;;;;;;0.10;0.10;;;;;;;;;;5045410;28;20474;-82
2021/09/19 04:18:43;;;;;;;0.00;0.00;;;;;;;;;;5060759;28;20039;-83
2021/09/19 04:21:09;;;;;;;0.23;0.23;;;;;;;;;;5060782;28;20320;-82
2021/09/19 04:23:35;;;;;;;0.00;0.00;;;;;;;;;;5061364;28;20045;-82
2021/09/19 04:26:01;;;;;;;0.10;0.10;;;;;;;;;;5062234;28;20518;-82
2021/09/19 04:28:27;;;;;;;0.40;0.40;;;;;;;;;;5055018;28;20033;-82
2021/09/19 04:30:53;;;;;;;0.53;0.53;;;;;;;;;;5056912;28;20068;-82
2021/09/19 04:33:19;;;;;;;0.10;0.10;;;;;;;;;;5060343;28;20139;-82
2021/09/19 04:35:45;;;;;;;0.00;0.00;;;;;;;;;;5061082;28;20109;-81
2021/09/19 04:38:13;;;;;;;0.10;0.10;;;;;;;;;;5063620;28;20637;-82
2021/09/19 04:40:39;;;;;;;0.05;0.05;;;;;;;;;;5060958;28;20115;-82
2021/09/19 04:43:05;;;;;;;0.20;0.20;;;;;;;;;;5060550;28;20122;-82
2021/09/19 04:45:31;;;;;;;0.10;0.10;;;;;;;;;;5061824;28;20040;-82
2021/09/19 04:47:57;;;;;;;0.10;0.10;;;;;;;;;;5043872;28;20032;-82
2021/09/19 04:50:23;;;;;;;0.00;0.00;;;;;;;;;;5042060;28;20283;-82
2021/09/19 04:52:49;;;;;;;0.00;0.00;;;;;;;;;;5061706;28;20024;-82
2021/09/19 04:55:15;;;;;;;0.28;0.28;;;;;;;;;;5060695;28;20455;-82
2021/09/19 04:57:41;;;;;;;0.03;0.03;;;;;;;;;;5059379;28;20058;-82
2021/09/19 05:00:07;;;;;;;0.10;0.10;;;;;;;;;;5061077;28;20290;-82
2021/09/19 05:02:33;;;;;;;0.38;0.38;;;;;;;;;;5061652;28;20052;-81
2021/09/19 05:04:59;;;;;;;0.23;0.20;;;;;;;;;;5064030;28;20108;-81
2021/09/19 05:07:26;;;;;;;0.10;0.10;;;;;;;;;;5057846;28;20077;-81
2021/09/19 05:09:52;;;;;;;0.00;0.00;;;;;;;;;;5061019;28;20715;-83
2021/09/19 05:12:18;;;;;;;0.13;0.13;;;;;;;;;;5058754;28;20033;-82
2021/09/19 05:14:44;;;;;;;0.00;0.00;;;;;;;;;;5057318;28;20037;-82
2021/09/19 05:17:10;;;;;;;0.10;0.10;;;;;;;;;;5061273;28;20556;-82
2021/09/19 05:19:36;;;;;;;0.00;0.00;;;;;;;;;;5056619;28;20318;-82
2021/09/19 05:22:02;;;;;;;4.50;1.50;;;;;;;;;;5059929;28;20101;-82
2021/09/19 05:24:28;;;;;;;0.10;0.10;;;;;;;;;;5059539;28;20571;-82
2021/09/19 05:26:54;;;;;;;0.17;0.17;;;;;;;;;;5043092;28;20036;-82
2021/09/19 05:29:20;;;;;;;0.20;0.20;;;;;;;;;;5063430;28;20163;-84
2021/09/19 05:31:46;;;;;;;0.27;0.27;;;;;;;;;;5061765;28;20111;-84
2021/09/19 05:34:12;;;;;;;10.80;0.70;;;;;;;;;;5061999;28;20036;-83
2021/09/19 05:36:38;;;;;;;0.20;0.20;;;;;;;;;;5063547;28;20600;-83
2021/09/19 05:39:04;;;;;;;0.20;0.20;;;;;;;;;;5065148;28;20401;-83
2021/09/19 05:41:31;;;;;;;0.10;0.10;;;;;;;;;;5051106;28;20023;-82
2021/09/19 05:43:57;;;;;;;0.77;0.77;;;;;;;;;;5053698;28;20036;-83
2021/09/19 05:46:23;;;;;;;0.10;0.10;;;;;;;;;;5059572;28;20038;-83
2021/09/19 05:48:49;;;;;;;0.20;0.20;;;;;;;;;;5059817;28;20294;-84
2021/09/19 05:51:16;;;;;;;0.40;0.40;;;;;;;;;;5053234;28;20479;-83
2021/09/19 05:53:42;;;;;;;0.00;0.00;;;;;;;;;;5053584;28;20497;-82
2021/09/19 05:56:08;;;;;;;0.10;0.10;;;;;;;;;;5064952;28;20032;-82
2021/09/19 05:58:35;;;;;;;0.00;0.00;;;;;;;;;;5064611;28;20102;-85
2021/09/19 06:01:01;;;;;;;0.00;0.00;;;;;;;;;;5061895;28;20042;-86
2021/09/19 06:03:27;;;;;;;0.00;0.00;;;;;;;;;;5063551;28;20047;-86
2021/09/19 06:05:53;;;;;;;0.10;0.10;;;;;;;;;;5065381;28;20083;-86
2021/09/19 06:08:19;;;;;;;0.10;0.10;;;;;;;;;;5062653;28;20024;-85
2021/09/19 06:10:45;;;;;;;3.47;1.80;;;;;;;;;;5063559;28;20274;-85
2021/09/19 06:13:11;;;;;;;0.10;0.10;;;;;;;;;;5057665;28;20043;-87
2021/09/19 06:15:37;;;;;;;0.00;0.00;;;;;;;;;;5053403;28;20071;-86
2021/09/19 06:18:03;;;;;;;0.10;0.10;;;;;;;;;;5057157;28;20331;-84
2021/09/19 06:20:29;;;;;;;0.10;0.10;;;;;;;;;;5062607;28;20066;-85
2021/09/19 06:22:55;;;;;;;0.40;0.40;;;;;;;;;;5057579;28;20028;-86
2021/09/19 06:25:21;;;;;;;0.13;0.13;;;;;;;;;;5052100;28;20043;-85
2021/09/19 06:27:47;;;;;;;0.00;0.00;;;;;;;;;;5057829;28;20043;-86
2021/09/19 06:30:14;;;;;;;0.10;0.10;;;;;;;;;;5052264;28;20024;-86
2021/09/19 06:32:40;;;;;;;0.00;0.00;;;;;;;;;;5041526;28;20040;-86
2021/09/19 06:35:06;;;;;;;7.53;5.60;;;;;;;;;;5067763;28;20106;-84
2021/09/19 06:37:32;;;;;;;1.20;1.10;;;;;;;;;;5063938;28;20024;-83
2021/09/19 06:39:58;;;;;;;0.10;0.10;;;;;;;;;;5060254;28;20136;-83
2021/09/19 06:42:24;;;;;;;0.23;0.20;;;;;;;;;;5054035;28;20473;-84
2021/09/19 06:44:50;;;;;;;0.30;0.30;;;;;;;;;;5058498;28;20295;-83
2021/09/19 06:47:17;;;;;;;0.10;0.10;;;;;;;;;;5049380;28;20033;-84
2021/09/19 06:49:43;;;;;;;1.05;0.80;;;;;;;;;;5051864;28;20528;-84
2021/09/19 06:52:09;;;;;;;1.03;0.93;;;;;;;;;;5055120;28;20712;-83
2021/09/19 06:54:35;;;;;;;0.20;0.20;;;;;;;;;;5034057;28;20035;-81
2021/09/19 06:57:01;;;;;;;0.37;0.37;;;;;;;;;;5048371;28;20595;-83
2021/09/19 06:59:27;;;;;;;0.87;0.87;;;;;;;;;;5050004;28;20784;-82
2021/09/19 07:01:53;;;;;;;0.13;0.13;;;;;;;;;;5049479;28;20722;-83
2021/09/19 07:04:19;;;;;;;0.23;0.13;;;;;;;;;;5047409;28;20029;-83
2021/09/19 07:06:49;;;;;;;0.10;0.10;;;;;;;;;;5052118;28;20074;-84
2021/09/19 07:09:15;;;;;;;0.10;0.10;;;;;;;;;;5059835;28;20037;-84
2021/09/19 07:11:41;;;;;;;5.23;0.40;;;;;;;;;;5048024;28;20689;-83
2021/09/19 07:14:07;;;;;;;0.43;0.20;;;;;;;;;;5061272;28;20074;-84
2021/09/19 07:16:33;;;;;;;0.20;0.20;;;;;;;;;;5051952;28;20260;-84
2021/09/19 07:18:59;;;;;;;0.10;0.10;;;;;;;;;;5052163;28;20025;-84
2021/09/19 07:21:26;;;;;;;1.07;0.67;;;;;;;;;;5049981;28;20480;-85
2021/09/19 07:23:52;;;;;;;0.45;0.45;;;;;;;;;;5046609;28;20455;-84
2021/09/19 07:26:18;;;;;;;0.10;0.10;;;;;;;;;;5049036;28;20029;-84
2021/09/19 07:28:44;;;;;;;0.33;0.30;;;;;;;;;;5058409;28;20034;-83
2021/09/19 07:31:10;;;;;;;0.20;0.20;;;;;;;;;;5039746;28;20025;-84
2021/09/19 07:33:36;;;;;;;9.95;1.65;;;;;;;;;;5053813;28;20028;-84
2021/09/19 07:36:02;;;;;;;0.10;0.10;;;;;;;;;;5051344;28;20492;-85
2021/09/19 07:38:29;;;;;;;2.20;1.05;;;;;;;;;;5065457;28;20251;-84
2021/09/19 07:40:55;;;;;;;0.10;0.10;;;;;;;;;;5055465;28;20120;-84
2021/09/19 07:43:21;;;;;;;0.00;0.00;;;;;;;;;;5053671;28;20035;-84
2021/09/19 07:45:47;;;;;;;0.10;0.10;;;;;;;;;;5053682;28;20037;-85
2021/09/19 07:48:17;;;;;;;0.10;0.10;;;;;;;;;;5053165;28;20270;-84
2021/09/19 07:50:43;;;;;;;1.48;1.23;;;;;;;;;;5048585;28;20287;-84
2021/09/19 07:53:10;;;;;;;0.32;0.32;;;;;;;;;;5054071;28;20044;-83
2021/09/19 07:55:36;;;;;;;1.48;1.38;;;;;;;;;;5063196;28;20033;-83
2021/09/19 07:58:02;;;;;;;1.05;0.98;;;;;;;;;;5058489;28;20397;-84
2021/09/19 08:00:28;;;;;;;0.38;0.20;;;;;;;;;;5052863;28;20032;-89
2021/09/19 08:02:55;;;;;;;10.70;1.77;;;;;;;;;;5052365;28;20051;-89
2021/09/19 08:05:22;;;;;;;13.30;3.88;;;;;;;;;;5060815;28;20731;-89
2021/09/19 08:07:48;;;;;;;2.75;2.42;;;;;;;;;;5052716;28;20032;-89
2021/09/19 08:10:15;;;;;;;3.50;2.50;;;;;;;;;;5063281;28;20111;-88
2021/09/19 08:12:43;;;;;;;1.77;0.80;;;;;;;;;;5053214;28;20032;-89
2021/09/19 08:15:09;;;;;;;0.32;0.32;;;;;;;;;;5057293;28;20141;-90
2021/09/19 08:17:36;;;;;;;0.10;0.10;;;;;;;;;;5050907;28;20013;-86
2021/09/19 08:20:02;;;;;;;0.10;0.10;;;;;;;;;;5052351;28;20128;-87
2021/09/19 08:22:28;;;;;;;0.50;0.50;;;;;;;;;;5033856;28;20284;-86
2021/09/19 08:24:54;;;;;;;0.43;0.43;;;;;;;;;;5056174;28;20067;-86
2021/09/19 08:27:20;;;;;;;3.50;2.63;;;;;;;;;;5060189;28;20366;-88
2021/09/19 08:29:46;;;;;;;13.53;0.70;;;;;;;;;;5050260;28;20036;-87
2021/09/19 08:32:12;;;;;;;0.20;0.20;;;;;;;;;;5048492;28;20028;-88
2021/09/19 08:34:41;;;;;;;0.10;0.10;;;;;;;;;;5060482;28;20433;-88
2021/09/19 08:37:07;;;;;;;0.20;0.20;;;;;;;;;;5061784;28;20876;-86
2021/09/19 08:39:33;;;;;;;0.57;0.57;;;;;;;;;;5063945;28;20033;-86
2021/09/19 08:41:59;;;;;;;0.13;0.13;;;;;;;;;;5055999;28;20115;-86
2021/09/19 08:44:25;;;;;;;0.30;0.30;;;;;;;;;;5050931;28;20021;-86
2021/09/19 08:46:51;;;;;;;1.23;1.17;;;;;;;;;;5065788;28;20031;-88
2021/09/19 08:49:17;;;;;;;7.00;2.92;;;;;;;;;;5055734;28;20027;-87
2021/09/19 08:51:44;;;;;;;1.30;0.95;;;;;;;;;;5052749;28;20041;-87
2021/09/19 08:54:10;;;;;;;0.63;0.63;;;;;;;;;;5050328;28;20650;-86
2021/09/19 08:56:36;;;;;;;2.13;0.88;;;;;;;;;;5030780;28;20485;-86
2021/09/19 08:59:02;;;;;;;7.67;1.77;;;;;;;;;;5060712;28;20044;-86
2021/09/19 09:01:28;;;;;;;7.30;1.02;;;;;;;;;;5061047;28;20267;-87
2021/09/19 09:04:04;;;;;;;0.57;0.57;;;;;;;;;;5060914;28;20035;-86
2021/09/19 09:06:36;;;;;;;3.33;0.98;;;;;;;;;;5050417;28;20684;-85
2021/09/19 09:09:13;;;;;;;0.57;0.55;;;;;;;;;;5056783;28;20024;-88
2021/09/19 09:11:39;;;;;;;0.68;0.68;;;;;;;;;;5050910;28;20070;-87
2021/09/19 09:14:05;;;;;;;0.17;0.17;;;;;;;;;;5045567;28;20037;-87
2021/09/19 09:16:31;;;;;;;0.40;0.40;;;;;;;;;;5064767;28;20475;-87
2021/09/19 09:18:58;;;;;;;0.32;0.20;;;;;;;;;;5050289;28;20033;-87
2021/09/19 09:21:25;;;;;;;0.20;0.20;;;;;;;;;;5041422;28;20112;-85
2021/09/19 09:23:52;;;;;;;0.13;0.13;;;;;;;;;;5049808;28;20036;-85
2021/09/19 09:26:37;;;;;;;0.35;0.35;;;;;;;;;;5046958;28;20574;-87
2021/09/19 09:29:08;;;;;;;0.00;0.00;;;;;;;;;;5062221;28;20028;-86
2021/09/19 09:31:34;;;;;;;0.00;0.00;;;;;;;;;;5059863;28;20028;-86
2021/09/19 09:34:04;;;;;;;2.03;0.52;;;;;;;;;;5061395;28;20102;-86
2021/09/19 09:36:38;;;;;;;0.90;0.82;;;;;;;;;;5060556;28;20037;-86
2021/09/19 09:39:24;;;;;;;0.10;0.10;;;;;;;;;;5062990;28;20024;-86
2021/09/19 09:41:51;;;;;;;0.50;0.50;;;;;;;;;;5063756;28;20029;-85
2021/09/19 09:44:30;;;;;;;0.52;0.52;;;;;;;;;;5057739;28;20582;-85
2021/09/19 09:46:57;;;;;;;0.10;0.10;;;;;;;;;;5063302;28;20036;-86
2021/09/19 09:49:37;;;;;;;0.20;0.20;;;;;;;;;;5064554;28;20093;-85
2021/09/19 09:52:07;;;;;;;0.30;0.30;;;;;;;;;;5062610;28;20607;-86
2021/09/19 09:54:45;;;;;;;0.10;0.10;;;;;;;;;;5062256;28;20036;-86
2021/09/19 09:57:12;;;;;;;0.10;0.10;;;;;;;;;;5059855;28;20047;-87
2021/09/19 09:59:38;;;;;;;0.20;0.20;;;;;;;;;;5040647;28;20038;-86
2021/09/19 10:02:04;;;;;;;0.10;0.10;;;;;;;;;;5056503;28;20025;-85
2021/09/19 10:04:32;;;;;;;0.10;0.10;;;;;;;;;;5063479;28;20059;-87
2021/09/19 10:06:58;;;;;;;2.30;0.30;;;;;;;;;;5044205;28;20032;-88
2021/09/19 10:09:25;;;;;;;0.28;0.28;;;;;;;;;;5056008;28;20025;-88
2021/09/19 10:11:51;;;;;;;0.10;0.10;;;;;;;;;;5056887;28;20040;-87
2021/09/19 10:14:17;;;;;;;0.00;0.00;;;;;;;;;;5043304;28;20220;-88
2021/09/19 10:16:43;;;;;;;1.02;0.82;;;;;;;;;;5048487;28;20039;-86
2021/09/19 10:19:09;;;;;;;0.95;0.52;;;;;;;;;;5062190;28;20037;-86
2021/09/19 10:21:36;;;;;;;0.40;0.40;;;;;;;;;;5031096;28;20082;-87
2021/09/19 10:24:04;;;;;;;0.10;0.10;;;;;;;;;;5034547;28;20063;-87
2021/09/19 10:26:30;;;;;;;0.10;0.10;;;;;;;;;;5053061;28;20120;-84
2021/09/19 10:29:00;;;;;;;0.70;0.70;;;;;;;;;;5051426;28;20068;-85
2021/09/19 10:31:32;;;;;;;0.13;0.13;;;;;;;;;;5050536;28;20032;-85
2021/09/19 10:34:10;;;;;;;0.20;0.20;;;;;;;;;;5056804;28;20095;-85
2021/09/19 10:36:39;;;;;;;0.20;0.20;;;;;;;;;;5048883;28;20498;-85
2021/09/19 10:39:24;;;;;;;0.43;0.43;;;;;;;;;;5041994;28;20036;-85
2021/09/19 10:42:05;;;;;;;0.55;0.38;;;;;;;;;;5056211;28;20021;-84
2021/09/19 10:44:35;;;;;;;0.08;0.08;;;;;;;;;;5058189;28;20119;-85
2021/09/19 10:47:06;;;;;;;0.10;0.10;;;;;;;;;;5050691;28;20124;-84
2021/09/19 10:49:35;;;;;;;0.10;0.10;;;;;;;;;;5051560;28;20443;-86
2021/09/19 10:52:01;;;;;;;0.15;0.15;;;;;;;;;;5062289;28;20068;-90
2021/09/19 10:54:53;;;;;;;0.57;0.10;;;;;;;;;;5060280;28;20074;-86
2021/09/19 10:57:37;;;;;;;0.00;0.00;;;;;;;;;;5060532;28;20041;-85
2021/09/19 11:00:09;;;;;;;0.20;0.20;;;;;;;;;;5052406;28;20036;-86
2021/09/19 11:02:36;;;;;;;0.00;0.00;;;;;;;;;;5053828;28;20055;-84
2021/09/19 11:05:21;;;;;;;0.08;0.08;;;;;;;;;;5058141;28;20021;-87
2021/09/19 11:07:47;;;;;;;0.00;0.00;;;;;;;;;;5054358;28;20033;-86
2021/09/19 11:10:14;;;;;;;0.00;0.00;;;;;;;;;;5068922;28;20037;-87
2021/09/19 11:12:40;;;;;;;;;;;;;;;;;;5068734;28;20592;-89
2021/09/19 11:15:07;;;;;;;0.00;0.00;;;;;;;;;;5061208;28;20003;-88
2021/09/19 11:17:34;;;;;;;0.32;0.32;;;;;;;;;;5057599;28;20079;-91
2021/09/19 11:20:13;;;;;;;0.00;0.00;;;;;;;;;;5048646;28;20505;-85
2021/09/19 11:22:39;;;;;;;0.00;0.00;;;;;;;;;;5065847;28;20112;-86
2021/09/19 11:25:06;;;;;;;0.00;0.00;;;;;;;;;;5067992;28;20031;-87
2021/09/19 11:27:32;;;;;;;0.00;0.00;;;;;;;;;;5052515;28;20033;-88
2021/09/19 11:29:58;;;;;;;0.00;0.00;;;;;;;;;;5065548;28;20033;-85
2021/09/19 11:32:25;;;;;;;0.10;0.10;;;;;;;;;;5064700;28;20097;-88
2021/09/19 11:34:51;;;;;;;0.15;0.15;;;;;;;;;;5062818;28;20056;-90
2021/09/19 11:37:18;;;;;;;0.10;0.10;;;;;;;;;;5064320;28;20025;-88
2021/09/19 11:39:45;;;;;;;1.98;0.35;;;;;;;;;;5067375;28;20029;-88
2021/09/19 11:42:12;;;;;;;0.03;0.03;;;;;;;;;;5064027;28;20024;-86
2021/09/19 11:44:46;;;;;;;0.00;0.00;;;;;;;;;;5064689;28;20036;-86
2021/09/19 11:47:13;;;;;;;0.10;0.10;;;;;;;;;;5064411;28;20017;-88
2021/09/19 11:49:41;;;;;;;0.10;0.10;;;;;;;;;;5041678;28;20063;-88
2021/09/19 11:52:07;;;;;;;0.00;0.00;;;;;;;;;;5066498;28;20635;-86
2021/09/19 11:54:33;;;;;;;0.10;0.10;;;;;;;;;;5067141;28;20101;-87
2021/09/19 11:57:00;;;;;;;0.10;0.10;;;;;;;;;;5066026;28;20078;-88
2021/09/19 11:59:27;;;;;;;0.08;0.08;;;;;;;;;;5062658;28;20039;-90
2021/09/19 12:01:55;;;;;;;0.00;0.00;;;;;;;;;;5061473;28;20033;-88
2021/09/19 12:04:25;;;;;;;0.00;0.00;;;;;;;;;;5047318;28;20040;-90
2021/09/19 12:06:51;;;;;;;0.35;0.30;;;;;;;;;;5051235;28;20082;-91
2021/09/19 12:09:18;;;;;;;;;;;;;;;;;;5063266;28;20036;-93
2021/09/19 12:11:54;;;;;;;0.10;0.10;;;;;;;;;;5060878;28;20007;-89
2021/09/19 12:14:20;;;;;;;0.43;0.43;;;;;;;;;;5055065;28;20048;-86
2021/09/19 12:17:06;;;;;;;0.30;0.30;;;;;;;;;;5053443;28;20025;-87
2021/09/19 12:19:34;;;;;;;0.15;0.15;;;;;;;;;;5054795;28;20632;-88
2021/09/19 12:22:05;;;;;;;0.10;0.10;;;;;;;;;;5039589;28;20032;-84
2021/09/19 12:24:32;;;;;;;1.77;0.63;;;;;;;;;;5059749;28;20036;-88
2021/09/19 12:27:34;;;;;;;0.00;0.00;;;;;;;;;;5067419;28;20135;-88
2021/09/19 12:30:07;;;;;;;0.00;0.00;;;;;;;;;;4966778;28;20033;-88
2021/09/19 12:32:46;;;;;;;0.20;0.20;;;;;;;;;;4980565;28;20197;-88
2021/09/19 12:35:14;;;;;;;0.00;0.00;;;;;;;;;;4986547;28;20060;-88
2021/09/19 12:37:42;;;;;;;0.10;0.10;;;;;;;;;;4982125;28;20559;-88
2021/09/19 12:40:19;;;;;;;0.45;0.45;;;;;;;;;;4985741;28;20060;-89
2021/09/19 12:42:45;;;;;;;;;;;;;;;;;;4979811;28;20034;-86
2021/09/19 12:45:12;;;;;;;0.10;0.10;;;;;;;;;;4976331;28;19920;-87
2021/09/19 12:47:39;;;;;;;6.40;0.55;;;;;;;;;;4981119;28;20560;-87
2021/09/19 12:50:05;;;;;;;;;;;;;;;;;;4985235;28;20069;-88
2021/09/19 12:52:32;;;;;;;0.10;0.10;;;;;;;;;;4982801;28;19921;-86
2021/09/19 12:54:59;;;;;;;0.10;0.10;;;;;;;;;;4980465;28;20057;-86
2021/09/19 12:57:26;;;;;;;2.17;0.20;;;;;;;;;;4982822;28;20100;-86
2021/09/19 12:59:53;;;;;;;0.10;0.10;;;;;;;;;;4981518;28;20036;-86
2021/09/19 13:02:21;;;;;;;0.30;0.22;;;;;;;;;;4981340;28;20026;-85
2021/09/19 13:04:47;;;;;;;0.10;0.10;;;;;;;;;;5045326;28;20099;-85
2021/09/19 13:07:14;;;;;;;0.65;0.32;;;;;;;;;;5062995;28;20066;-86
2021/09/19 13:09:41;;;;;;;0.43;0.43;;;;;;;;;;5061327;28;20078;-87
2021/09/19 13:12:07;;;;;;;0.00;0.00;;;;;;;;;;5058696;28;20025;-86
2021/09/19 13:14:33;;;;;;;;;;;;;;;;;;5059072;28;20070;-86
2021/09/19 13:17:00;;;;;;;0.00;0.00;;;;;;;;;;5058138;28;20628;-86
2021/09/19 13:19:26;;;;;;;0.10;0.10;;;;;;;;;;5062211;28;20043;-85
2021/09/19 13:21:53;;;;;;;0.00;0.00;;;;;;;;;;5060807;28;20107;-85
2021/09/19 13:24:20;;;;;;;0.00;0.00;;;;;;;;;;5059515;28;20047;-85
2021/09/19 13:26:47;;;;;;;0.00;0.00;;;;;;;;;;5058187;28;20017;-86
2021/09/19 13:29:16;;;;;;;0.70;0.70;;;;;;;;;;5057316;28;20506;-85
2021/09/19 13:31:42;;;;;;;0.00;0.00;;;;;;;;;;5059197;28;20025;-86
2021/09/19 13:34:09;;;;;;;0.15;0.15;;;;;;;;;;5061676;28;20069;-86
2021/09/19 13:36:36;;;;;;;0.38;0.32;;;;;;;;;;5060444;28;20047;-86
2021/09/19 13:39:02;;;;;;;;;;;;;;;;;;5058307;28;20043;-86
2021/09/19 13:41:28;;;;;;;0.00;0.00;;;;;;;;;;5057904;28;19918;-86
2021/09/19 13:43:54;;;;;;;0.00;0.00;;;;;;;;;;5058066;28;20041;-85
2021/09/19 13:46:21;;;;;;;0.00;0.00;;;;;;;;;;5044245;28;20021;-86
2021/09/19 13:48:48;;;;;;;3.15;0.30;;;;;;;;;;5048985;28;20033;-84
2021/09/19 13:51:14;;;;;;;;;;;;;;;;;;5058496;28;20086;-86
2021/09/19 13:53:40;;;;;;;0.00;0.00;;;;;;;;;;5057662;28;19938;-85
2021/09/19 13:56:07;;;;;;;0.98;0.43;;;;;;;;;;5057903;28;20033;-85
2021/09/19 13:58:33;;;;;;;;;;;;;;;;;;5060816;28;20103;-86
2021/09/19 14:00:59;;;;;;;0.10;0.10;;;;;;;;;;5060270;28;20053;-86
2021/09/19 14:03:27;;;;;;;0.30;0.30;;;;;;;;;;5059265;28;20024;-85
2021/09/19 14:05:54;;;;;;;0.10;0.10;;;;;;;;;;5036684;28;20036;-86
2021/09/19 14:08:20;;;;;;;1.98;0.30;;;;;;;;;;5049944;28;20027;-86
2021/09/19 14:10:47;;;;;;;0.10;0.10;;;;;;;;;;5058269;28;20032;-85
2021/09/19 14:13:13;;;;;;;0.00;0.00;;;;;;;;;;5061426;28;20033;-85
2021/09/19 14:15:42;;;;;;;0.03;0.03;;;;;;;;;;5044674;28;20926;-86
2021/09/19 14:18:08;;;;;;;0.00;0.00;;;;;;;;;;5056187;28;20032;-87
2021/09/19 14:20:34;;;;;;;0.47;0.47;;;;;;;;;;5057331;28;20040;-86
2021/09/19 14:23:00;;;;;;;0.10;0.10;;;;;;;;;;5055937;28;20520;-85
2021/09/19 14:25:27;;;;;;;0.00;0.00;;;;;;;;;;5045965;28;20032;-86
2021/09/19 14:27:54;;;;;;;0.10;0.10;;;;;;;;;;5059505;28;20124;-86
2021/09/19 14:30:21;;;;;;;0.32;0.10;;;;;;;;;;5048351;28;20091;-86
2021/09/19 14:32:48;;;;;;;0.00;0.00;;;;;;;;;;5052956;28;20038;-86
2021/09/19 14:35:15;;;;;;;0.00;0.00;;;;;;;;;;5056502;28;20045;-86
2021/09/19 14:37:41;;;;;;;0.00;0.00;;;;;;;;;;5058557;28;20025;-86
2021/09/19 14:40:08;;;;;;;0.80;0.32;;;;;;;;;;5059922;28;20043;-86
2021/09/19 14:42:34;;;;;;;;;;;;;;;;;;5059932;28;20028;-86
2021/09/19 14:45:00;;;;;;;0.10;0.10;;;;;;;;;;5056738;28;19912;-85